Time;durP1;ratioP1;P1;durP2;ratioP2;P2;SDS_P1;SDS_P2;PMS_P1;PMS_P2;Temp;Humidity;BMP_temperature;BMP_pressure;BME280_temperature;BME280_humidity;BME280_pressure;Samples;Min_cycle;Max_cycle;Signal;HPM_P1;HPM_P2
2022/10/28 00:00:45;;;;;;;10.57;3.75;;;20.00;99.90;;;;;;2097018;28;20471;-72
2022/10/28 00:01:46;;;;;;;9.93;4.43;;;19.90;99.90;;;;;;2094687;28;20028;-72
2022/10/28 00:02:46;;;;;;;10.45;4.20;;;19.90;99.90;;;;;;2094480;28;21170;-72
2022/10/28 00:03:49;;;;;;;9.60;3.65;;;19.90;99.90;;;;;;2094422;28;20395;-72
2022/10/28 00:04:50;;;;;;;12.00;4.72;;;19.90;99.90;;;;;;2094919;28;20033;-72
2022/10/28 00:05:53;;;;;;;6.95;3.75;;;19.90;99.90;;;;;;2097280;28;20037;-72
2022/10/28 00:06:53;;;;;;;12.40;4.45;;;20.00;99.90;;;;;;2094167;28;20016;-72
2022/10/28 00:07:54;;;;;;;10.43;3.70;;;19.90;99.90;;;;;;2096429;28;20056;-72
2022/10/28 00:08:55;;;;;;;5.05;3.75;;;19.90;99.90;;;;;;2094905;28;20479;-72
2022/10/28 00:09:55;;;;;;;11.23;3.40;;;20.00;99.90;;;;;;2095365;28;20032;-72
2022/10/28 00:11:14;;;;;;;15.57;4.03;;;20.00;99.90;;;;;;2094687;28;20025;-71
2022/10/28 00:12:15;;;;;;;7.88;3.53;;;19.90;99.90;;;;;;2092324;28;20025;-72
2022/10/28 00:13:15;;;;;;;20.08;4.25;;;20.00;99.90;;;;;;2096550;28;20027;-72
2022/10/28 00:14:16;;;;;;;9.48;3.97;;;20.00;99.90;;;;;;2095377;28;20355;-72
2022/10/28 00:15:17;;;;;;;10.57;3.30;;;20.00;99.90;;;;;;2091116;28;20303;-72
2022/10/28 00:16:20;;;;;;;10.27;4.07;;;20.00;99.90;;;;;;2094440;28;20028;-72
2022/10/28 00:17:21;;;;;;;9.07;3.97;;;20.00;99.90;;;;;;2087763;28;20056;-72
2022/10/28 00:18:21;;;;;;;16.33;4.03;;;20.00;99.90;;;;;;2095362;28;20028;-72
2022/10/28 00:19:22;;;;;;;12.13;3.60;;;20.00;99.90;;;;;;2094843;28;20128;-72
2022/10/28 00:20:22;;;;;;;7.60;3.85;;;20.00;99.90;;;;;;2094043;28;20028;-72
2022/10/28 00:21:26;;;;;;;13.48;4.20;;;20.00;99.90;;;;;;2095943;28;20127;-72
2022/10/28 00:22:26;;;;;;;8.57;3.75;;;20.00;99.90;;;;;;2095635;28;20386;-72
2022/10/28 00:23:27;;;;;;;12.00;4.55;;;20.00;99.90;;;;;;2095077;28;20063;-72
2022/10/28 00:24:28;;;;;;;11.52;3.95;;;20.10;99.90;;;;;;2095672;28;20035;-72
2022/10/28 00:25:28;;;;;;;11.73;3.75;;;20.10;99.90;;;;;;2095641;28;20043;-72
2022/10/28 00:26:31;;;;;;;13.52;4.28;;;20.10;99.90;;;;;;2094654;28;20032;-72
2022/10/28 00:27:32;;;;;;;10.07;3.83;;;20.10;99.90;;;;;;2096583;28;20035;-71
2022/10/28 00:28:33;;;;;;;8.43;3.50;;;20.10;99.90;;;;;;2093556;28;20027;-72
2022/10/28 00:29:33;;;;;;;11.82;3.72;;;20.10;99.90;;;;;;2097275;28;20491;-72
2022/10/28 00:30:34;;;;;;;15.52;4.30;;;20.10;99.90;;;;;;2094735;28;20387;-72
2022/10/28 00:31:36;;;;;;;6.38;3.50;;;20.10;99.90;;;;;;2094906;28;20078;-72
2022/10/28 00:32:36;;;;;;;10.57;3.67;;;20.10;99.90;;;;;;2095404;28;20028;-72
2022/10/28 00:33:37;;;;;;;15.45;4.15;;;20.00;99.90;;;;;;2095670;28;20025;-72
2022/10/28 00:34:38;;;;;;;10.75;4.32;;;20.10;99.90;;;;;;2094978;28;20027;-72
2022/10/28 00:35:38;;;;;;;9.75;3.67;;;20.00;99.90;;;;;;2088683;28;20056;-72
2022/10/28 00:36:41;;;;;;;7.75;3.78;;;20.10;99.90;;;;;;2094043;28;20610;-72
2022/10/28 00:37:42;;;;;;;11.63;3.92;;;20.00;99.90;;;;;;2093410;28;20024;-72
2022/10/28 00:38:45;;;;;;;7.80;3.28;;;20.00;99.90;;;;;;2091895;28;20025;-72
2022/10/28 00:39:45;;;;;;;9.65;3.78;;;20.00;99.90;;;;;;2092918;28;20036;-72
2022/10/28 00:40:46;;;;;;;9.98;3.72;;;20.00;99.90;;;;;;2095222;28;20067;-72
2022/10/28 00:41:56;;;;;;;10.45;4.07;;;20.00;99.90;;;;;;2095138;28;20036;-72
2022/10/28 00:42:56;;;;;;;;;;;20.10;99.90;;;;;;2096792;28;20033;-72
2022/10/28 00:44:00;;;;;;;11.02;3.65;;;20.00;99.90;;;;;;2094434;28;20253;-72
2022/10/28 00:45:03;;;;;;;7.93;3.53;;;20.00;99.90;;;;;;2095849;28;20439;-72
2022/10/28 00:46:12;;;;;;;11.23;4.40;;;20.00;99.90;;;;;;2091758;28;20119;-72
2022/10/28 00:47:21;;;;;;;10.57;3.45;;;20.00;99.90;;;;;;2094965;28;20020;-72
2022/10/28 00:48:21;;;;;;;12.15;3.67;;;20.00;99.90;;;;;;2092563;28;20020;-72
2022/10/28 00:49:27;;;;;;;11.70;3.58;;;20.00;99.90;;;;;;2095751;28;20013;-72
2022/10/28 00:50:47;;;;;;;8.23;3.88;;;20.10;99.90;;;;;;2102437;28;20027;-72
2022/10/28 00:51:51;;;;;;;7.97;3.63;;;20.10;99.90;;;;;;2099532;28;20579;-72
2022/10/28 00:53:02;;;;;;;10.13;3.47;;;20.00;99.90;;;;;;2095388;28;20468;-72
2022/10/28 00:54:04;;;;;;;10.38;3.65;;;20.00;99.90;;;;;;2095371;28;20032;-71
2022/10/28 00:55:06;;;;;;;12.10;3.88;;;20.00;99.90;;;;;;2095746;28;20027;-71
2022/10/28 00:56:08;;;;;;;10.32;4.35;;;20.00;99.90;;;;;;2093883;28;20033;-72
2022/10/28 00:57:13;;;;;;;13.38;3.92;;;20.10;99.90;;;;;;2095250;28;20504;-72
2022/10/28 00:58:15;;;;;;;9.75;3.63;;;20.10;99.90;;;;;;2093410;28;20487;-72
2022/10/28 00:59:20;;;;;;;12.75;3.72;;;20.10;99.90;;;;;;2094961;28;20029;-72
2022/10/28 01:00:21;;;;;;;11.18;3.67;;;20.10;99.90;;;;;;2095625;28;20525;-72
2022/10/28 01:01:22;;;;;;;7.05;3.22;;;20.10;99.90;;;;;;2094294;28;20029;-72
2022/10/28 01:02:22;;;;;;;11.27;3.75;;;20.20;99.90;;;;;;2094674;28;20024;-72
2022/10/28 01:03:23;;;;;;;12.60;4.30;;;20.20;99.90;;;;;;2094973;28;20043;-72
2022/10/28 01:04:24;;;;;;;8.65;3.22;;;20.20;99.90;;;;;;2094696;28;20025;-72
2022/10/28 01:05:28;;;;;;;8.88;3.50;;;20.20;99.90;;;;;;2094766;28;20380;-72
2022/10/28 01:06:29;;;;;;;8.55;3.55;;;20.20;99.90;;;;;;2093581;28;20039;-72
2022/10/28 01:07:29;;;;;;;10.88;4.07;;;20.20;99.90;;;;;;2095852;28;20029;-72
2022/10/28 01:08:31;;;;;;;11.40;4.15;;;20.20;99.90;;;;;;2095682;28;20123;-72
2022/10/28 01:09:31;;;;;;;9.95;4.00;;;20.20;99.90;;;;;;2094522;28;20027;-72
2022/10/28 01:11:02;;;;;;;10.10;3.40;;;20.20;99.90;;;;;;2092542;28;20063;-72
2022/10/28 01:12:37;;;;;;;10.52;3.90;;;20.20;99.90;;;;;;2095221;28;20085;-72
2022/10/28 01:13:57;;;;;;;10.57;3.15;;;20.20;99.90;;;;;;2092159;28;20020;-72
2022/10/28 01:15:09;;;;;;;10.18;3.70;;;20.10;99.90;;;;;;2096739;28;20016;-72
2022/10/28 01:16:37;;;;;;;8.50;3.00;;;20.20;99.90;;;;;;2094176;28;20807;-72
2022/10/28 01:17:56;;;;;;;9.32;4.10;;;20.20;99.90;;;;;;2093791;28;20028;-72
2022/10/28 01:19:26;;;;;;;12.25;4.07;;;20.10;99.90;;;;;;2094830;28;20107;-72
2022/10/28 01:20:41;;;;;;;8.85;3.60;;;20.20;99.90;;;;;;2094304;28;20028;-72
2022/10/28 01:22:04;;;;;;;10.05;4.13;;;20.20;99.90;;;;;;2093893;28;20078;-72
2022/10/28 01:23:19;;;;;;;11.77;3.53;;;20.20;99.90;;;;;;2094513;28;20024;-72
2022/10/28 01:24:53;;;;;;;9.52;3.25;;;20.20;99.90;;;;;;2095294;28;20028;-72
2022/10/28 01:26:10;;;;;;;11.73;3.65;;;20.20;99.90;;;;;;2092065;28;20032;-72
2022/10/28 01:27:29;;;;;;;7.03;3.40;;;20.20;99.90;;;;;;2095801;28;20103;-72
2022/10/28 01:28:54;;;;;;;9.50;3.50;;;20.20;99.90;;;;;;2092064;28;20052;-72
2022/10/28 01:30:18;;;;;;;8.02;3.50;;;20.20;99.90;;;;;;2094135;28;20148;-72
2022/10/28 01:31:39;;;;;;;13.05;3.47;;;20.20;99.90;;;;;;2104222;28;20032;-72
2022/10/28 01:32:45;;;;;;;;;;;20.20;99.90;;;;;;2099970;28;20038;-72
2022/10/28 01:34:07;;;;;;;9.60;3.45;;;20.10;99.90;;;;;;2096260;28;19946;-72
2022/10/28 01:35:33;;;;;;;7.10;3.38;;;20.10;99.90;;;;;;2094534;28;20028;-72
2022/10/28 01:36:41;;;;;;;9.45;4.00;;;20.10;99.90;;;;;;2093857;28;20051;-72
2022/10/28 01:37:51;;;;;;;9.05;3.20;;;20.20;99.90;;;;;;2093408;28;20532;-72
2022/10/28 01:39:06;;;;;;;13.38;4.32;;;20.20;99.90;;;;;;2094486;28;20039;-72
2022/10/28 01:40:21;;;;;;;9.45;3.63;;;20.20;99.90;;;;;;2093482;28;20064;-72
2022/10/28 01:41:30;;;;;;;8.18;3.13;;;20.20;99.90;;;;;;2094734;28;20035;-72
2022/10/28 01:42:58;;;;;;;10.35;3.40;;;20.20;99.90;;;;;;2093019;28;20027;-72
2022/10/28 01:44:10;;;;;;;9.50;3.13;;;20.20;99.90;;;;;;2070265;28;20037;-72
2022/10/28 01:45:43;;;;;;;7.38;2.90;;;20.20;99.90;;;;;;2094644;28;20035;-72
2022/10/28 01:47:00;;;;;;;13.73;4.47;;;20.20;99.90;;;;;;2092038;28;20458;-72
2022/10/28 01:48:03;;;;;;;8.70;3.50;;;20.20;99.90;;;;;;2092913;28;20036;-72
2022/10/28 01:49:15;;;;;;;7.78;3.72;;;20.20;99.90;;;;;;2094720;28;20181;-72
2022/10/28 01:50:24;;;;;;;11.45;3.70;;;20.20;99.90;;;;;;2095732;28;20055;-72
2022/10/28 01:51:35;;;;;;;11.00;3.83;;;20.20;99.90;;;;;;2093953;28;20379;-72
2022/10/28 01:52:38;;;;;;;11.35;2.95;;;20.30;99.90;;;;;;2093797;28;20028;-72
2022/10/28 01:53:40;;;;;;;8.38;3.25;;;20.20;99.90;;;;;;2095489;28;20017;-72
2022/10/28 01:54:46;;;;;;;8.38;3.15;;;20.30;99.90;;;;;;2095055;28;20024;-72
2022/10/28 01:55:51;;;;;;;10.05;3.60;;;20.30;99.90;;;;;;2089910;28;20056;-72
2022/10/28 01:56:55;;;;;;;9.35;3.30;;;20.30;99.90;;;;;;2089871;28;20024;-72
2022/10/28 01:58:00;;;;;;;13.43;3.53;;;20.30;99.90;;;;;;2095140;28;20128;-72
2022/10/28 01:59:02;;;;;;;13.63;4.25;;;20.30;99.90;;;;;;2092450;28;20041;-72
2022/10/28 02:00:04;;;;;;;9.98;3.67;;;20.30;99.90;;;;;;2095412;28;20050;-72
2022/10/28 02:01:07;;;;;;;11.55;3.28;;;20.40;99.90;;;;;;2093728;28;20520;-72
2022/10/28 02:02:07;;;;;;;14.73;4.05;;;20.40;99.90;;;;;;2095203;28;20031;-72
2022/10/28 02:03:08;;;;;;;10.45;3.13;;;20.40;99.90;;;;;;2094587;28;20039;-72
2022/10/28 02:04:09;;;;;;;9.02;3.58;;;20.40;99.90;;;;;;2094985;28;20032;-72
2022/10/28 02:05:44;;;;;;;8.10;3.67;;;20.40;99.90;;;;;;2095456;28;20028;-72
2022/10/28 02:06:49;;;;;;;14.45;3.83;;;20.40;99.90;;;;;;2095516;28;20025;-72
2022/10/28 02:07:55;;;;;;;10.35;3.33;;;20.40;99.90;;;;;;2092607;28;20047;-72
2022/10/28 02:09:24;;;;;;;10.98;4.43;;;20.40;99.90;;;;;;2093807;28;20020;-72
2022/10/28 02:10:36;;;;;;;11.20;3.72;;;20.40;99.90;;;;;;2094127;28;20008;-72
2022/10/28 02:11:48;;;;;;;13.00;3.97;;;20.40;99.90;;;;;;2094191;28;20032;-72
2022/10/28 02:12:54;;;;;;;12.15;3.72;;;20.40;99.90;;;;;;2092535;28;20028;-72
2022/10/28 02:14:26;;;;;;;13.18;3.50;;;20.40;99.90;;;;;;2093992;28;20029;-72
2022/10/28 02:15:50;;;;;;;9.45;3.92;;;20.40;99.90;;;;;;2095480;28;20032;-72
2022/10/28 02:17:15;;;;;;;10.45;3.95;;;20.40;99.90;;;;;;2092422;28;20028;-72
2022/10/28 02:18:38;;;;;;;10.30;3.45;;;20.40;99.90;;;;;;2091159;28;20033;-72
2022/10/28 02:20:08;;;;;;;10.48;3.33;;;20.40;99.90;;;;;;2095178;28;20056;-72
2022/10/28 02:21:19;;;;;;;11.85;3.47;;;20.40;99.90;;;;;;2094962;28;20496;-72
2022/10/28 02:22:29;;;;;;;9.98;3.90;;;20.40;99.90;;;;;;2093354;28;20064;-72
2022/10/28 02:23:44;;;;;;;8.63;3.78;;;20.40;99.90;;;;;;2094556;28;20036;-72
2022/10/28 02:25:21;;;;;;;6.50;3.10;;;20.40;99.90;;;;;;2094476;28;20028;-72
2022/10/28 02:26:28;;;;;;;7.85;3.58;;;20.40;99.90;;;;;;2091896;28;20021;-72
2022/10/28 02:27:28;;;;;;;10.60;3.05;;;20.40;99.90;;;;;;2093902;28;20025;-72
2022/10/28 02:28:41;;;;;;;10.80;3.65;;;20.40;99.90;;;;;;2094347;28;20032;-72
2022/10/28 02:29:51;;;;;;;9.48;3.13;;;20.40;99.90;;;;;;2094960;28;20013;-72
2022/10/28 02:31:06;;;;;;;6.82;3.15;;;20.40;99.90;;;;;;2093747;28;20054;-72
2022/10/28 02:32:14;;;;;;;10.15;3.88;;;20.50;99.90;;;;;;2093719;28;20025;-72
2022/10/28 02:33:20;;;;;;;8.40;2.83;;;20.40;99.90;;;;;;2095065;28;20028;-72
2022/10/28 02:34:28;;;;;;;12.63;4.00;;;20.40;99.90;;;;;;2095768;28;20070;-72
2022/10/28 02:35:38;;;;;;;12.57;3.50;;;20.40;99.90;;;;;;2096599;28;20064;-72
2022/10/28 02:36:43;;;;;;;7.07;2.95;;;20.50;99.90;;;;;;2093995;28;20916;-72
2022/10/28 02:37:47;;;;;;;8.20;3.53;;;20.40;99.90;;;;;;2093520;28;20047;-72
2022/10/28 02:38:52;;;;;;;8.90;3.63;;;20.50;99.90;;;;;;2094791;28;20423;-72
2022/10/28 02:40:01;;;;;;;9.27;3.05;;;20.50;99.90;;;;;;2092721;28;20044;-72
2022/10/28 02:41:07;;;;;;;10.00;3.30;;;20.50;99.90;;;;;;2095422;28;20086;-72
2022/10/28 02:42:20;;;;;;;9.63;3.17;;;20.40;99.90;;;;;;2094740;28;20099;-72
2022/10/28 02:43:22;;;;;;;9.00;3.53;;;20.40;99.90;;;;;;2093047;28;20021;-72
2022/10/28 02:44:28;;;;;;;14.32;3.47;;;20.40;99.90;;;;;;2094717;28;20032;-72
2022/10/28 02:45:34;;;;;;;7.95;3.83;;;20.40;99.90;;;;;;2095986;28;20020;-72
2022/10/28 02:46:38;;;;;;;7.53;3.05;;;20.40;99.90;;;;;;2094605;28;20073;-72
2022/10/28 02:47:42;;;;;;;12.32;3.08;;;20.40;99.90;;;;;;2093840;28;20024;-72
2022/10/28 02:48:47;;;;;;;6.78;3.10;;;20.40;99.90;;;;;;2094855;28;20107;-72
2022/10/28 02:49:55;;;;;;;12.57;4.05;;;20.40;99.90;;;;;;2093435;28;20021;-72
2022/10/28 02:51:10;;;;;;;12.05;3.83;;;20.40;99.90;;;;;;2095088;28;20021;-72
2022/10/28 02:52:12;;;;;;;9.55;3.15;;;20.40;99.90;;;;;;2094653;28;20338;-72
2022/10/28 02:53:29;;;;;;;10.52;3.08;;;20.30;99.90;;;;;;2094495;28;20086;-72
2022/10/28 02:54:54;;;;;;;13.73;4.07;;;20.30;99.90;;;;;;2094856;28;20024;-72
2022/10/28 02:55:58;;;;;;;12.15;4.03;;;20.30;99.90;;;;;;2085322;28;20032;-72
2022/10/28 02:57:21;;;;;;;6.82;3.55;;;20.30;99.90;;;;;;2095796;28;20029;-72
2022/10/28 02:58:22;;;;;;;11.25;3.42;;;20.20;99.90;;;;;;2095110;28;20024;-72
2022/10/28 02:59:24;;;;;;;11.00;3.83;;;20.20;99.90;;;;;;2094567;28;20021;-72
2022/10/28 03:00:25;;;;;;;8.38;3.67;;;20.20;99.90;;;;;;2094883;28;20027;-72
2022/10/28 03:01:25;;;;;;;11.18;3.50;;;20.20;99.90;;;;;;2094504;28;20066;-72
2022/10/28 03:02:27;;;;;;;12.68;3.80;;;20.20;99.90;;;;;;2092784;28;20468;-72
2022/10/28 03:03:27;;;;;;;7.18;3.03;;;20.20;99.90;;;;;;2095296;28;20028;-72
2022/10/28 03:04:28;;;;;;;13.02;3.35;;;20.20;99.90;;;;;;2093210;28;20063;-72
2022/10/28 03:05:28;;;;;;;10.50;3.92;;;20.20;99.90;;;;;;2087850;28;20113;-72
2022/10/28 03:06:29;;;;;;;9.63;3.90;;;20.10;99.90;;;;;;2093357;28;20028;-72
2022/10/28 03:07:29;;;;;;;13.35;3.53;;;20.10;99.90;;;;;;2093657;28;20495;-72
2022/10/28 03:08:30;;;;;;;8.52;3.63;;;20.10;99.90;;;;;;2094467;28;20048;-72
2022/10/28 03:09:31;;;;;;;9.13;3.22;;;20.10;99.90;;;;;;2094178;28;20069;-71
2022/10/28 03:10:31;;;;;;;7.38;3.05;;;20.10;99.90;;;;;;2094857;28;20384;-73
2022/10/28 03:11:32;;;;;;;9.93;3.42;;;20.10;99.90;;;;;;2095655;28;20083;-72
2022/10/28 03:12:33;;;;;;;9.60;3.50;;;20.10;99.90;;;;;;2093534;28;20033;-72
2022/10/28 03:13:33;;;;;;;13.23;4.10;;;20.10;99.90;;;;;;2093961;28;20100;-72
2022/10/28 03:14:34;;;;;;;8.25;3.40;;;20.00;99.90;;;;;;2092209;28;20035;-72
2022/10/28 03:15:35;;;;;;;8.25;3.40;;;20.00;99.90;;;;;;2095460;28;20028;-72
2022/10/28 03:16:35;;;;;;;6.72;3.30;;;20.00;99.90;;;;;;2092581;28;20036;-72
2022/10/28 03:17:36;;;;;;;10.00;3.05;;;20.00;99.90;;;;;;2093949;28;20052;-72
2022/10/28 03:18:36;;;;;;;6.35;3.28;;;20.00;99.90;;;;;;2096162;28;20098;-72
2022/10/28 03:19:37;;;;;;;7.65;3.22;;;20.00;99.90;;;;;;2095020;28;20032;-72
2022/10/28 03:20:38;;;;;;;9.45;3.92;;;20.00;99.90;;;;;;2093828;28;20073;-72
2022/10/28 03:21:38;;;;;;;8.70;3.35;;;19.90;99.90;;;;;;2096350;28;20414;-72
2022/10/28 03:22:42;;;;;;;9.80;3.25;;;19.90;99.90;;;;;;2095504;28;20024;-72
2022/10/28 03:23:42;;;;;;;7.47;3.20;;;19.90;99.90;;;;;;2095720;28;20028;-72
2022/10/28 03:24:43;;;;;;;7.55;3.35;;;19.80;99.90;;;;;;2095823;28;20107;-72
2022/10/28 03:25:43;;;;;;;9.98;3.10;;;19.80;99.90;;;;;;2096076;28;20036;-72
2022/10/28 03:26:44;;;;;;;11.10;3.92;;;19.80;99.90;;;;;;2094912;28;20100;-72
2022/10/28 03:27:44;;;;;;;8.40;3.50;;;19.80;99.90;;;;;;2096266;28;20399;-72
2022/10/28 03:28:45;;;;;;;12.48;3.92;;;19.70;99.90;;;;;;2096057;28;20085;-72
2022/10/28 03:29:45;;;;;;;8.38;3.63;;;19.80;99.90;;;;;;2094715;28;20108;-72
2022/10/28 03:30:46;;;;;;;8.35;3.05;;;19.70;99.90;;;;;;2096560;28;20119;-72
2022/10/28 03:31:46;;;;;;;11.25;4.45;;;19.70;99.90;;;;;;2094448;28;20036;-72
2022/10/28 03:32:47;;;;;;;7.93;3.28;;;19.70;99.90;;;;;;2096071;28;20037;-72
2022/10/28 03:33:47;;;;;;;7.97;3.17;;;19.70;99.90;;;;;;2096539;28;20031;-72
2022/10/28 03:34:48;;;;;;;12.52;3.50;;;19.70;99.90;;;;;;2092588;28;20155;-72
2022/10/28 03:35:48;;;;;;;11.65;3.55;;;19.70;99.90;;;;;;2096230;28;20047;-72
2022/10/28 03:36:49;;;;;;;13.20;3.92;;;19.70;99.90;;;;;;2095942;28;20032;-72
2022/10/28 03:37:50;;;;;;;10.52;3.75;;;19.60;99.90;;;;;;2094740;28;20083;-72
2022/10/28 03:38:50;;;;;;;7.60;3.80;;;19.70;99.90;;;;;;2095542;28;20036;-72
2022/10/28 03:39:51;;;;;;;10.20;3.28;;;19.70;99.90;;;;;;2095617;28;20738;-72
2022/10/28 03:40:51;;;;;;;10.95;3.72;;;19.70;99.90;;;;;;2097113;28;20033;-72
2022/10/28 03:41:52;;;;;;;10.48;3.75;;;19.60;99.90;;;;;;2095024;28;20033;-72
2022/10/28 03:42:52;;;;;;;11.45;4.47;;;19.70;99.90;;;;;;2095220;28;20021;-72
2022/10/28 03:43:53;;;;;;;6.53;3.50;;;19.60;99.90;;;;;;2096548;28;20028;-72
2022/10/28 03:44:53;;;;;;;12.77;4.18;;;19.70;99.90;;;;;;2095191;28;20074;-72
2022/10/28 03:45:54;;;;;;;6.53;3.42;;;19.60;99.90;;;;;;2094705;28;20028;-72
2022/10/28 03:46:55;;;;;;;8.30;3.40;;;19.70;99.90;;;;;;2096882;28;20081;-72
2022/10/28 03:47:55;;;;;;;11.15;3.45;;;19.60;99.90;;;;;;2096074;28;20086;-72
2022/10/28 03:48:56;;;;;;;8.23;3.65;;;19.60;99.90;;;;;;2096910;28;20074;-72
2022/10/28 03:49:56;;;;;;;8.50;3.85;;;19.60;99.90;;;;;;2096749;28;20024;-72
2022/10/28 03:50:57;;;;;;;6.13;3.10;;;19.60;99.90;;;;;;2096859;28;20056;-72
2022/10/28 03:51:57;;;;;;;8.20;3.72;;;19.60;99.90;;;;;;2097570;28;20036;-72
2022/10/28 03:52:58;;;;;;;8.43;3.60;;;19.60;99.90;;;;;;2093509;28;20032;-72
2022/10/28 03:53:58;;;;;;;7.55;3.45;;;19.60;99.90;;;;;;2095527;28;20032;-72
2022/10/28 03:54:59;;;;;;;12.05;3.78;;;19.60;99.90;;;;;;2097352;28;20052;-72
2022/10/28 03:56:01;;;;;;;9.90;3.75;;;19.60;99.90;;;;;;2094000;28;20025;-72
2022/10/28 03:57:01;;;;;;;7.65;3.72;;;19.60;99.90;;;;;;2097454;28;20063;-72
2022/10/28 03:58:02;;;;;;;8.05;3.22;;;19.50;99.90;;;;;;2095484;28;20025;-72
2022/10/28 03:59:03;;;;;;;10.63;3.65;;;19.50;99.90;;;;;;2094931;28;20120;-72
2022/10/28 04:00:04;;;;;;;11.88;3.70;;;19.50;99.90;;;;;;2097142;28;20070;-72
2022/10/28 04:01:05;;;;;;;10.77;3.55;;;19.50;99.90;;;;;;2093021;28;20040;-72
2022/10/28 04:02:05;;;;;;;10.55;3.75;;;19.50;99.90;;;;;;2096250;28;20543;-72
2022/10/28 04:03:06;;;;;;;10.07;3.47;;;19.50;99.90;;;;;;2095094;28;20037;-72
2022/10/28 04:04:06;;;;;;;7.28;3.75;;;19.50;99.90;;;;;;2095585;28;20032;-72
2022/10/28 04:05:07;;;;;;;8.23;3.75;;;19.40;99.90;;;;;;2096370;28;20107;-72
2022/10/28 04:06:09;;;;;;;9.60;3.80;;;19.40;99.90;;;;;;2094978;28;20402;-72
2022/10/28 04:07:09;;;;;;;14.93;4.20;;;19.40;99.90;;;;;;2093732;28;20024;-72
2022/10/28 04:08:10;;;;;;;11.98;3.50;;;19.40;99.90;;;;;;2096605;28;20048;-72
2022/10/28 04:09:11;;;;;;;5.40;3.45;;;19.40;99.90;;;;;;2095713;28;20089;-72
2022/10/28 04:10:12;;;;;;;8.73;3.97;;;19.40;99.90;;;;;;2095045;28;20025;-72
2022/10/28 04:11:12;;;;;;;9.52;3.88;;;19.40;99.90;;;;;;2096626;28;20028;-72
2022/10/28 04:12:13;;;;;;;9.60;3.95;;;19.30;99.90;;;;;;2095457;28;20027;-72
2022/10/28 04:13:14;;;;;;;8.23;4.07;;;19.30;99.90;;;;;;2096472;28;20025;-72
2022/10/28 04:14:14;;;;;;;10.32;3.72;;;19.30;99.90;;;;;;2095221;28;20078;-72
2022/10/28 04:15:15;;;;;;;16.08;4.47;;;19.30;99.90;;;;;;2094238;28;20073;-72
2022/10/28 04:16:16;;;;;;;9.40;3.80;;;19.30;99.90;;;;;;2095236;28;20085;-72
2022/10/28 04:17:16;;;;;;;13.98;3.88;;;19.30;99.90;;;;;;2094076;28;20024;-72
2022/10/28 04:18:17;;;;;;;11.05;3.92;;;19.20;99.90;;;;;;2092670;28;20017;-72
2022/10/28 04:19:17;;;;;;;10.68;3.65;;;19.20;99.90;;;;;;2096521;28;20582;-72
2022/10/28 04:20:18;;;;;;;11.10;3.63;;;19.20;99.90;;;;;;2090165;28;20392;-72
2022/10/28 04:21:18;;;;;;;14.40;4.10;;;19.20;99.90;;;;;;2091876;28;20116;-72
2022/10/28 04:22:19;;;;;;;12.38;3.92;;;19.20;99.90;;;;;;2094447;28;20063;-71
2022/10/28 04:23:19;;;;;;;17.85;4.50;;;19.20;99.90;;;;;;2095915;28;20020;-71
2022/10/28 04:24:20;;;;;;;9.50;4.03;;;19.20;99.90;;;;;;2095821;28;20031;-71
2022/10/28 04:25:21;;;;;;;8.32;3.30;;;19.10;99.90;;;;;;2095580;28;20025;-71
2022/10/28 04:26:22;;;;;;;10.32;3.50;;;19.10;99.90;;;;;;2094058;28;20028;-71
2022/10/28 04:27:22;;;;;;;20.02;4.45;;;19.10;99.90;;;;;;2094843;28;20029;-72
2022/10/28 04:28:23;;;;;;;8.90;4.32;;;19.10;99.90;;;;;;2093679;28;20104;-71
2022/10/28 04:29:23;;;;;;;9.73;3.85;;;19.10;99.90;;;;;;2094810;28;20028;-71
2022/10/28 04:30:24;;;;;;;9.13;4.18;;;19.10;99.90;;;;;;2096372;28;20099;-71
2022/10/28 04:31:24;;;;;;;10.60;4.40;;;19.00;99.90;;;;;;2093982;28;20442;-71
2022/10/28 04:32:25;;;;;;;11.90;4.40;;;19.00;99.90;;;;;;2095225;28;20121;-71
2022/10/28 04:33:26;;;;;;;12.57;3.85;;;19.10;99.90;;;;;;2095538;28;20094;-71
2022/10/28 04:34:26;;;;;;;12.85;3.78;;;19.00;99.90;;;;;;2092994;28;20407;-71
2022/10/28 04:35:27;;;;;;;12.65;4.13;;;19.00;99.90;;;;;;2095947;28;20031;-71
2022/10/28 04:36:27;;;;;;;10.93;4.05;;;19.00;99.90;;;;;;2092977;28;20035;-72
2022/10/28 04:37:28;;;;;;;12.25;4.10;;;19.00;99.90;;;;;;2094410;28;20029;-71
2022/10/28 04:38:28;;;;;;;9.75;3.50;;;19.00;99.90;;;;;;2095286;28;20024;-71
2022/10/28 04:39:29;;;;;;;8.60;3.60;;;18.90;99.90;;;;;;2094673;28;20086;-71
2022/10/28 04:40:29;;;;;;;12.93;3.97;;;18.90;99.90;;;;;;2096799;28;20032;-71
2022/10/28 04:41:30;;;;;;;9.55;3.72;;;19.00;99.90;;;;;;2095562;28;20062;-71
2022/10/28 04:42:30;;;;;;;13.18;3.80;;;19.00;99.90;;;;;;2092775;28;20118;-71
2022/10/28 04:43:31;;;;;;;12.93;3.97;;;19.00;99.90;;;;;;2093552;28;20086;-71
2022/10/28 04:44:31;;;;;;;13.52;4.15;;;19.00;99.90;;;;;;2094257;28;20052;-71
2022/10/28 04:45:32;;;;;;;13.10;3.60;;;19.00;99.90;;;;;;2094917;28;20484;-71
2022/10/28 04:46:33;;;;;;;10.98;3.92;;;19.00;99.90;;;;;;2091414;28;20029;-71
2022/10/28 04:47:33;;;;;;;9.05;3.83;;;19.00;99.90;;;;;;2091549;28;20132;-71
2022/10/28 04:48:34;;;;;;;13.35;4.53;;;19.00;99.90;;;;;;2091218;28;20390;-71
2022/10/28 04:49:35;;;;;;;9.52;4.50;;;19.00;99.90;;;;;;2092191;28;20524;-71
2022/10/28 04:50:35;;;;;;;9.05;3.65;;;19.00;99.90;;;;;;2096012;28;20635;-71
2022/10/28 04:51:36;;;;;;;13.30;4.05;;;19.00;99.90;;;;;;2094892;28;20036;-71
2022/10/28 04:52:36;;;;;;;8.82;3.80;;;19.00;99.90;;;;;;2095049;28;20029;-71
2022/10/28 04:53:37;;;;;;;9.98;4.07;;;19.00;99.90;;;;;;2094488;28;20046;-71
2022/10/28 04:54:37;;;;;;;11.30;3.90;;;19.00;99.90;;;;;;2094992;28;20024;-71
2022/10/28 04:55:38;;;;;;;11.40;3.38;;;19.00;99.90;;;;;;2095831;28;20111;-71
2022/10/28 04:56:39;;;;;;;10.30;4.18;;;19.00;99.90;;;;;;2094998;28;20051;-71
2022/10/28 04:57:39;;;;;;;9.40;3.85;;;18.90;99.90;;;;;;2094157;28;20024;-71
2022/10/28 04:58:40;;;;;;;8.55;4.03;;;18.90;99.90;;;;;;2094723;28;20174;-71
2022/10/28 04:59:41;;;;;;;13.75;4.07;;;18.90;99.90;;;;;;2095423;28;20086;-71
2022/10/28 05:00:41;;;;;;;9.98;3.63;;;18.90;99.90;;;;;;2095409;28;20052;-71
2022/10/28 05:01:42;;;;;;;8.73;4.03;;;18.90;99.90;;;;;;2094303;28;20068;-72
2022/10/28 05:02:42;;;;;;;12.00;4.50;;;18.90;99.90;;;;;;2095504;28;20229;-72
2022/10/28 05:03:43;;;;;;;13.32;4.68;;;18.80;99.90;;;;;;2094787;28;20452;-72
2022/10/28 05:04:43;;;;;;;11.18;3.85;;;18.80;99.90;;;;;;2095782;28;20126;-72
2022/10/28 05:05:44;;;;;;;10.60;4.03;;;18.80;99.90;;;;;;2094451;28;20028;-72
2022/10/28 05:06:44;;;;;;;8.98;4.18;;;18.80;99.90;;;;;;2093812;28;20058;-72
2022/10/28 05:07:45;;;;;;;13.13;4.20;;;18.80;99.90;;;;;;2095357;28;20028;-72
2022/10/28 05:08:45;;;;;;;14.55;4.35;;;18.80;99.90;;;;;;2093922;28;20031;-72
2022/10/28 05:09:46;;;;;;;15.07;5.03;;;18.80;99.90;;;;;;2094675;28;20399;-72
2022/10/28 05:10:49;;;;;;;10.32;3.83;;;18.80;99.90;;;;;;2093942;28;20025;-72
2022/10/28 05:11:50;;;;;;;12.50;4.80;;;18.80;99.90;;;;;;2093973;28;20531;-72
2022/10/28 05:12:51;;;;;;;12.07;4.22;;;18.80;99.90;;;;;;2094236;28;20051;-72
2022/10/28 05:13:54;;;;;;;9.07;4.38;;;18.70;99.90;;;;;;2095346;28;20490;-72
2022/10/28 05:14:55;;;;;;;11.05;4.18;;;18.70;99.90;;;;;;2095235;28;20032;-72
2022/10/28 05:15:55;;;;;;;10.63;4.55;;;18.70;99.90;;;;;;2094169;28;20645;-72
2022/10/28 05:16:56;;;;;;;10.65;4.50;;;18.70;99.90;;;;;;2093074;28;20403;-72
2022/10/28 05:17:56;;;;;;;10.38;4.70;;;18.70;99.90;;;;;;2095228;28;20060;-72
2022/10/28 05:18:57;;;;;;;13.90;3.85;;;18.60;99.90;;;;;;2095189;28;20029;-72
2022/10/28 05:19:57;;;;;;;9.05;3.35;;;18.60;99.90;;;;;;2094690;28;20568;-72
2022/10/28 05:20:58;;;;;;;16.00;4.43;;;18.70;99.90;;;;;;2092822;28;20479;-72
2022/10/28 05:21:59;;;;;;;12.75;4.03;;;18.70;99.90;;;;;;2093261;28;20017;-72
2022/10/28 05:22:59;;;;;;;16.17;4.47;;;18.70;99.90;;;;;;2093751;28;20254;-72
2022/10/28 05:24:00;;;;;;;14.43;3.97;;;18.60;99.90;;;;;;2094020;28;20021;-72
2022/10/28 05:25:00;;;;;;;15.73;3.75;;;18.60;99.90;;;;;;2093546;28;20024;-72
2022/10/28 05:26:01;;;;;;;13.55;4.45;;;18.60;99.90;;;;;;2091432;28;20024;-72
2022/10/28 05:27:01;;;;;;;9.40;4.13;;;18.60;99.90;;;;;;2092932;28;20078;-72
2022/10/28 05:28:02;;;;;;;10.82;4.15;;;18.60;99.90;;;;;;2093973;28;20033;-72
2022/10/28 05:29:03;;;;;;;11.40;3.90;;;18.60;99.90;;;;;;2093763;28;20024;-72
2022/10/28 05:30:04;;;;;;;9.90;3.90;;;18.70;99.90;;;;;;2091836;28;20082;-72
2022/10/28 05:31:04;;;;;;;9.68;3.97;;;18.60;99.90;;;;;;2092652;28;20036;-72
2022/10/28 05:32:05;;;;;;;13.27;4.40;;;18.70;99.90;;;;;;2092164;28;20024;-72
2022/10/28 05:33:05;;;;;;;8.93;4.18;;;18.60;99.90;;;;;;2093267;28;20851;-72
2022/10/28 05:34:06;;;;;;;15.45;4.22;;;18.70;99.90;;;;;;2093511;28;20542;-72